Terminal Aerodrome Forecast
Issued by NWS

Home | Current Version | Previous Version | Text Only | Print | Product List | Glossary On
Versions: 1 2 3 4 5 6 7 8 9 10 11 12 13 14 15 16 17 18 19 20 21 22 23 24
000
FTUS43 KMQT 291216 AAB
TAFSAW
TAF AMD
KSAW 291216Z 2912/3012 29008KT 5SM -FZDZSN BR SCT012 OVC020
     FM291300 32012G19KT P6SM SCT010 OVC015
     FM291800 33015G25KT P6SM OVC020
     FM300100 35015G26KT 3SM -SHSN BLSN OVC008
     FM300500 34010G20KT 6SM -SHSN OVC015
     FM301000 33009KT P6SM BKN015
      AMD LTD TO CLD VIS AND WIND 3003/3011=

USA.gov is the U.S. government's official web portal to all federal, state and local government web resources and services.